Resolute, Canada
Current Conditions -  °F | °C
As of 11:00 PM on Tuesday 21 Oct 2014 (Local Time) from CYRB Reporting Station
Clear Clear  
Wind Chill: 24°   Ceiling: Unl
Heat Index: 32°   Visibility: 15mi
Dew Point: 32°   Wind: 10mph
Humidity: 100%   Direction: 360°N
Pressure: 29.86"   Gusts: NA
Location:  74.69°N, 94.91°W
Report Text: CYRB 220400Z 36009KT 15SM SKC 00/00 A2986 RMK WND ESTD/TEMPUNAVBL
Loading
Personal Weather Stations






























Interactive Weather Map
Tropical Storm Tracking
New forecast layout! Learn more

10-Day Weather Forecast

Advertisements
Track Severe Weather on mobile